sensor_id;sensor_type;location;lat;lon;timestamp;pressure;altitude;pressure_sealevel;temperature;humidity
79400;BME280;68856;45.586;10.264;2024-01-16T00:00:28;98224.78;;;1.41;nan
79400;BME280;68856;45.586;10.264;2024-01-16T00:02:55;98234.88;;;1.39;nan
79400;BME280;68856;45.586;10.264;2024-01-16T00:05:21;98234.50;;;1.72;nan
79400;BME280;68856;45.586;10.264;2024-01-16T00:07:47;98239.78;;;1.78;nan
79400;BME280;68856;45.586;10.264;2024-01-16T00:10:13;98242.09;;;1.75;nan
79400;BME280;68856;45.586;10.264;2024-01-16T00:12:41;98238.44;;;1.51;nan
79400;BME280;68856;45.586;10.264;2024-01-16T00:15:08;98249.44;;;1.43;nan
79400;BME280;68856;45.586;10.264;2024-01-16T00:17:35;98241.19;;;1.45;nan
79400;BME280;68856;45.586;10.264;2024-01-16T00:20:01;98240.31;;;1.69;nan
79400;BME280;68856;45.586;10.264;2024-01-16T00:22:28;98239.75;;;1.24;nan
79400;BME280;68856;45.586;10.264;2024-01-16T00:24:54;98247.22;;;1.58;nan
79400;BME280;68856;45.586;10.264;2024-01-16T00:27:20;98248.47;;;1.38;nan
79400;BME280;68856;45.586;10.264;2024-01-16T00:29:47;98243.66;;;1.03;nan
79400;BME280;68856;45.586;10.264;2024-01-16T00:32:14;98244.28;;;1.05;nan
79400;BME280;68856;45.586;10.264;2024-01-16T00:34:43;98253.66;;;0.90;nan
79400;BME280;68856;45.586;10.264;2024-01-16T00:37:09;98257.34;;;0.89;nan
79400;BME280;68856;45.586;10.264;2024-01-16T00:39:36;98266.25;;;0.83;nan
79400;BME280;68856;45.586;10.264;2024-01-16T00:42:02;98264.88;;;1.23;nan
79400;BME280;68856;45.586;10.264;2024-01-16T00:44:29;98257.75;;;0.92;nan
79400;BME280;68856;45.586;10.264;2024-01-16T00:46:55;98264.56;;;0.88;nan
79400;BME280;68856;45.586;10.264;2024-01-16T00:49:21;98268.13;;;0.82;nan
79400;BME280;68856;45.586;10.264;2024-01-16T00:51:48;98276.94;;;0.83;nan
79400;BME280;68856;45.586;10.264;2024-01-16T00:54:14;98280.44;;;0.83;nan
79400;BME280;68856;45.586;10.264;2024-01-16T00:56:42;98286.16;;;0.87;nan
79400;BME280;68856;45.586;10.264;2024-01-16T00:59:08;98287.00;;;0.87;nan
79400;BME280;68856;45.586;10.264;2024-01-16T01:01:37;98287.25;;;1.04;nan
79400;BME280;68856;45.586;10.264;2024-01-16T01:04:04;98285.47;;;0.98;nan
79400;BME280;68856;45.586;10.264;2024-01-16T01:06:30;98286.22;;;1.05;nan
79400;BME280;68856;45.586;10.264;2024-01-16T01:08:56;98289.63;;;1.18;nan
79400;BME280;68856;45.586;10.264;2024-01-16T01:11:22;98292.53;;;0.86;nan
79400;BME280;68856;45.586;10.264;2024-01-16T01:13:49;98290.81;;;1.22;nan
79400;BME280;68856;45.586;10.264;2024-01-16T01:16:15;98291.78;;;1.03;nan
79400;BME280;68856;45.586;10.264;2024-01-16T01:18:41;98302.88;;;1.07;nan
79400;BME280;68856;45.586;10.264;2024-01-16T01:21:07;98296.63;;;0.88;nan
79400;BME280;68856;45.586;10.264;2024-01-16T01:23:33;98302.47;;;0.79;nan
79400;BME280;68856;45.586;10.264;2024-01-16T01:26:00;98302.69;;;0.77;nan
79400;BME280;68856;45.586;10.264;2024-01-16T01:28:27;98309.16;;;1.37;nan
79400;BME280;68856;45.586;10.264;2024-01-16T01:30:53;98317.44;;;1.36;nan
79400;BME280;68856;45.586;10.264;2024-01-16T01:33:19;98316.41;;;1.12;nan
79400;BME280;68856;45.586;10.264;2024-01-16T01:35:46;98326.00;;;0.95;nan
79400;BME280;68856;45.586;10.264;2024-01-16T01:38:12;98340.53;;;0.74;nan
79400;BME280;68856;45.586;10.264;2024-01-16T01:40:38;98337.59;;;0.82;nan
79400;BME280;68856;45.586;10.264;2024-01-16T01:43:18;98335.28;;;1.17;nan
79400;BME280;68856;45.586;10.264;2024-01-16T01:45:47;98338.19;;;1.15;nan
79400;BME280;68856;45.586;10.264;2024-01-16T01:48:21;98340.84;;;1.40;nan
79400;BME280;68856;45.586;10.264;2024-01-16T01:50:48;98337.94;;;1.17;nan
79400;BME280;68856;45.586;10.264;2024-01-16T01:53:14;98347.41;;;1.44;nan
79400;BME280;68856;45.586;10.264;2024-01-16T01:55:41;98355.09;;;1.34;nan
79400;BME280;68856;45.586;10.264;2024-01-16T01:58:08;98350.59;;;1.03;nan
79400;BME280;68856;45.586;10.264;2024-01-16T02:00:35;98357.94;;;0.83;nan
79400;BME280;68856;45.586;10.264;2024-01-16T02:03:01;98369.25;;;0.47;nan
79400;BME280;68856;45.586;10.264;2024-01-16T02:05:28;98366.22;;;0.75;nan
79400;BME280;68856;45.586;10.264;2024-01-16T02:07:55;98371.72;;;1.11;nan
79400;BME280;68856;45.586;10.264;2024-01-16T02:10:21;98371.09;;;0.85;nan
79400;BME280;68856;45.586;10.264;2024-01-16T02:12:48;98381.00;;;0.78;nan
79400;BME280;68856;45.586;10.264;2024-01-16T02:15:14;98374.66;;;1.03;nan
79400;BME280;68856;45.586;10.264;2024-01-16T02:17:40;98378.06;;;0.86;nan
79400;BME280;68856;45.586;10.264;2024-01-16T02:20:07;98380.72;;;0.92;nan
79400;BME280;68856;45.586;10.264;2024-01-16T02:22:34;98381.63;;;0.80;nan
79400;BME280;68856;45.586;10.264;2024-01-16T02:25:01;98380.31;;;0.89;nan
79400;BME280;68856;45.586;10.264;2024-01-16T02:27:28;98380.53;;;0.87;nan
79400;BME280;68856;45.586;10.264;2024-01-16T02:29:54;98392.94;;;1.06;nan
79400;BME280;68856;45.586;10.264;2024-01-16T02:32:20;98388.09;;;0.59;nan
79400;BME280;68856;45.586;10.264;2024-01-16T02:34:47;98392.69;;;0.39;nan
79400;BME280;68856;45.586;10.264;2024-01-16T02:37:13;98395.16;;;0.40;nan
79400;BME280;68856;45.586;10.264;2024-01-16T02:39:39;98402.13;;;0.86;nan
79400;BME280;68856;45.586;10.264;2024-01-16T02:42:06;98405.59;;;0.93;nan
79400;BME280;68856;45.586;10.264;2024-01-16T02:44:32;98405.22;;;0.45;nan
79400;BME280;68856;45.586;10.264;2024-01-16T02:46:58;98413.03;;;0.40;nan
79400;BME280;68856;45.586;10.264;2024-01-16T02:49:25;98416.66;;;0.58;nan
79400;BME280;68856;45.586;10.264;2024-01-16T02:51:52;98410.97;;;0.86;nan
79400;BME280;68856;45.586;10.264;2024-01-16T02:54:18;98415.13;;;0.76;nan
79400;BME280;68856;45.586;10.264;2024-01-16T02:56:44;98413.69;;;0.29;nan
79400;BME280;68856;45.586;10.264;2024-01-16T02:59:11;98415.41;;;0.10;nan
79400;BME280;68856;45.586;10.264;2024-01-16T03:01:37;98417.03;;;0.69;nan
79400;BME280;68856;45.586;10.264;2024-01-16T03:04:03;98429.09;;;0.33;nan
79400;BME280;68856;45.586;10.264;2024-01-16T03:06:30;98424.22;;;0.11;nan
79400;BME280;68856;45.586;10.264;2024-01-16T03:08:56;98435.63;;;0.44;nan
79400;BME280;68856;45.586;10.264;2024-01-16T03:11:22;98433.44;;;0.21;nan
79400;BME280;68856;45.586;10.264;2024-01-16T03:13:48;98449.75;;;0.57;nan
79400;BME280;68856;45.586;10.264;2024-01-16T03:16:18;98447.13;;;0.44;nan
79400;BME280;68856;45.586;10.264;2024-01-16T03:18:44;98456.00;;;0.32;nan
79400;BME280;68856;45.586;10.264;2024-01-16T03:21:12;98466.50;;;0.14;nan
79400;BME280;68856;45.586;10.264;2024-01-16T03:23:39;98466.91;;;0.24;nan
79400;BME280;68856;45.586;10.264;2024-01-16T03:26:05;98465.66;;;0.33;nan
79400;BME280;68856;45.586;10.264;2024-01-16T03:28:31;98469.59;;;0.17;nan
79400;BME280;68856;45.586;10.264;2024-01-16T03:30:57;98468.91;;;0.48;nan
79400;BME280;68856;45.586;10.264;2024-01-16T03:33:24;98467.50;;;0.32;nan
79400;BME280;68856;45.586;10.264;2024-01-16T03:35:51;98465.31;;;0.10;nan
79400;BME280;68856;45.586;10.264;2024-01-16T03:38:17;98467.34;;;0.14;nan
79400;BME280;68856;45.586;10.264;2024-01-16T03:40:43;98469.59;;;0.17;nan
79400;BME280;68856;45.586;10.264;2024-01-16T03:43:10;98472.28;;;0.04;nan
79400;BME280;68856;45.586;10.264;2024-01-16T03:45:36;98482.75;;;0.06;nan
79400;BME280;68856;45.586;10.264;2024-01-16T03:48:02;98473.50;;;0.15;nan
79400;BME280;68856;45.586;10.264;2024-01-16T03:50:29;98478.41;;;0.31;nan
79400;BME280;68856;45.586;10.264;2024-01-16T03:52:55;98474.56;;;-0.19;nan
79400;BME280;68856;45.586;10.264;2024-01-16T03:55:21;98480.72;;;-0.06;nan
79400;BME280;68856;45.586;10.264;2024-01-16T03:57:48;98483.03;;;0.61;nan
79400;BME280;68856;45.586;10.264;2024-01-16T04:00:14;98486.09;;;0.72;nan
79400;BME280;68856;45.586;10.264;2024-01-16T04:02:40;98466.91;;;0.30;nan
79400;BME280;68856;45.586;10.264;2024-01-16T04:05:07;98465.31;;;0.10;nan
79400;BME280;68856;45.586;10.264;2024-01-16T04:07:33;98466.72;;;0.25;nan
79400;BME280;68856;45.586;10.264;2024-01-16T04:10:00;98476.16;;;0.21;nan
79400;BME280;68856;45.586;10.264;2024-01-16T04:12:27;98483.59;;;-0.01;nan
79400;BME280;68856;45.586;10.264;2024-01-16T04:14:53;98485.22;;;0.14;nan
79400;BME280;68856;45.586;10.264;2024-01-16T04:17:19;98484.59;;;0.12;nan
79400;BME280;68856;45.586;10.264;2024-01-16T04:19:46;98482.38;;;-0.24;nan
79400;BME280;68856;45.586;10.264;2024-01-16T04:22:12;98479.09;;;-0.33;nan
79400;BME280;68856;45.586;10.264;2024-01-16T04:24:38;98498.38;;;-0.11;nan
79400;BME280;68856;45.586;10.264;2024-01-16T04:27:05;98498.94;;;0.30;nan
79400;BME280;68856;45.586;10.264;2024-01-16T04:29:31;98507.94;;;0.42;nan
79400;BME280;68856;45.586;10.264;2024-01-16T04:31:57;98506.78;;;0.12;nan
79400;BME280;68856;45.586;10.264;2024-01-16T04:34:24;98514.19;;;0.10;nan
79400;BME280;68856;45.586;10.264;2024-01-16T04:36:50;98501.78;;;0.48;nan
79400;BME280;68856;45.586;10.264;2024-01-16T04:39:16;98494.97;;;0.52;nan
79400;BME280;68856;45.586;10.264;2024-01-16T04:41:43;98507.06;;;0.68;nan
79400;BME280;68856;45.586;10.264;2024-01-16T04:44:09;98499.28;;;0.60;nan
79400;BME280;68856;45.586;10.264;2024-01-16T04:46:35;98501.84;;;0.22;nan
79400;BME280;68856;45.586;10.264;2024-01-16T04:49:02;98504.03;;;0.51;nan
79400;BME280;68856;45.586;10.264;2024-01-16T04:51:28;98493.78;;;0.48;nan
79400;BME280;68856;45.586;10.264;2024-01-16T04:53:54;98497.41;;;0.67;nan
79400;BME280;68856;45.586;10.264;2024-01-16T04:56:20;98505.91;;;0.38;nan
79400;BME280;68856;45.586;10.264;2024-01-16T04:58:47;98519.25;;;0.51;nan
79400;BME280;68856;45.586;10.264;2024-01-16T05:01:13;98512.59;;;0.80;nan
79400;BME280;68856;45.586;10.264;2024-01-16T05:03:40;98529.53;;;0.98;nan
79400;BME280;68856;45.586;10.264;2024-01-16T05:06:13;98521.69;;;0.52;nan
79400;BME280;68856;45.586;10.264;2024-01-16T05:08:40;98531.13;;;0.55;nan
79400;BME280;68856;45.586;10.264;2024-01-16T05:11:07;98537.63;;;0.85;nan
79400;BME280;68856;45.586;10.264;2024-01-16T05:13:33;98541.63;;;0.50;nan
79400;BME280;68856;45.586;10.264;2024-01-16T05:15:59;98536.34;;;0.17;nan
79400;BME280;68856;45.586;10.264;2024-01-16T05:18:26;98532.59;;;0.44;nan
79400;BME280;68856;45.586;10.264;2024-01-16T05:20:52;98531.75;;;0.63;nan
79400;BME280;68856;45.586;10.264;2024-01-16T05:23:18;98528.03;;;0.71;nan
79400;BME280;68856;45.586;10.264;2024-01-16T05:25:44;98537.13;;;0.50;nan
79400;BME280;68856;45.586;10.264;2024-01-16T05:28:11;98553.78;;;0.33;nan
79400;BME280;68856;45.586;10.264;2024-01-16T05:30:37;98548.63;;;0.51;nan
79400;BME280;68856;45.586;10.264;2024-01-16T05:33:03;98549.25;;;0.46;nan
79400;BME280;68856;45.586;10.264;2024-01-16T05:35:29;98542.00;;;0.60;nan
79400;BME280;68856;45.586;10.264;2024-01-16T05:37:56;98535.06;;;1.03;nan
79400;BME280;68856;45.586;10.264;2024-01-16T05:40:23;98539.00;;;1.01;nan
79400;BME280;68856;45.586;10.264;2024-01-16T05:42:49;98545.34;;;1.06;nan
79400;BME280;68856;45.586;10.264;2024-01-16T05:45:16;98553.75;;;0.52;nan
79400;BME280;68856;45.586;10.264;2024-01-16T05:47:43;98550.88;;;0.54;nan
79400;BME280;68856;45.586;10.264;2024-01-16T05:50:09;98558.94;;;0.28;nan
79400;BME280;68856;45.586;10.264;2024-01-16T05:52:35;98568.56;;;0.48;nan
79400;BME280;68856;45.586;10.264;2024-01-16T05:55:02;98576.19;;;0.38;nan
79400;BME280;68856;45.586;10.264;2024-01-16T05:57:29;98573.09;;;0.35;nan
79400;BME280;68856;45.586;10.264;2024-01-16T05:59:59;98574.75;;;0.49;nan
79400;BME280;68856;45.586;10.264;2024-01-16T06:02:29;98580.50;;;0.26;nan
79400;BME280;68856;45.586;10.264;2024-01-16T06:04:55;98587.06;;;0.56;nan
79400;BME280;68856;45.586;10.264;2024-01-16T06:07:21;98579.25;;;0.48;nan
79400;BME280;68856;45.586;10.264;2024-01-16T06:09:47;98581.28;;;0.59;nan
79400;BME280;68856;45.586;10.264;2024-01-16T06:12:14;98602.88;;;0.32;nan
79400;BME280;68856;45.586;10.264;2024-01-16T06:14:40;98601.44;;;0.16;nan
79400;BME280;68856;45.586;10.264;2024-01-16T06:17:06;98603.50;;;0.14;nan
79400;BME280;68856;45.586;10.264;2024-01-16T06:19:32;98602.06;;;0.31;nan
79400;BME280;68856;45.586;10.264;2024-01-16T06:21:59;98603.50;;;0.40;nan
79400;BME280;68856;45.586;10.264;2024-01-16T06:24:26;98612.72;;;0.18;nan
79400;BME280;68856;45.586;10.264;2024-01-16T06:26:52;98619.31;;;0.16;nan
79400;BME280;68856;45.586;10.264;2024-01-16T06:29:18;98633.91;;;0.20;nan
79400;BME280;68856;45.586;10.264;2024-01-16T06:31:45;98625.06;;;0.45;nan
79400;BME280;68856;45.586;10.264;2024-01-16T06:34:11;98626.53;;;0.28;nan
79400;BME280;68856;45.586;10.264;2024-01-16T06:36:37;98624.88;;;0.08;nan
79400;BME280;68856;45.586;10.264;2024-01-16T06:39:03;98622.81;;;0.23;nan
79400;BME280;68856;45.586;10.264;2024-01-16T06:41:30;98627.94;;;0.37;nan
79400;BME280;68856;45.586;10.264;2024-01-16T06:43:56;98620.53;;;0.39;nan
79400;BME280;68856;45.586;10.264;2024-01-16T06:46:22;98619.50;;;0.21;nan
79400;BME280;68856;45.586;10.264;2024-01-16T06:48:48;98630.44;;;0.13;nan
79400;BME280;68856;45.586;10.264;2024-01-16T06:51:15;98642.75;;;0.46;nan
79400;BME280;68856;45.586;10.264;2024-01-16T06:53:42;98642.72;;;0.14;nan
79400;BME280;68856;45.586;10.264;2024-01-16T06:56:08;98648.50;;;0.17;nan
79400;BME280;68856;45.586;10.264;2024-01-16T06:58:34;98648.72;;;0.35;nan
79400;BME280;68856;45.586;10.264;2024-01-16T07:01:01;98646.03;;;0.22;nan
79400;BME280;68856;45.586;10.264;2024-01-16T07:03:28;98656.50;;;0.17;nan
79400;BME280;68856;45.586;10.264;2024-01-16T07:05:54;98669.44;;;0.20;nan
79400;BME280;68856;45.586;10.264;2024-01-16T07:08:20;98662.84;;;0.16;nan
79400;BME280;68856;45.586;10.264;2024-01-16T07:10:47;98668.22;;;0.23;nan
79400;BME280;68856;45.586;10.264;2024-01-16T07:13:13;98669.03;;;0.49;nan
79400;BME280;68856;45.586;10.264;2024-01-16T07:15:40;98674.38;;;0.23;nan
79400;BME280;68856;45.586;10.264;2024-01-16T07:18:06;98672.94;;;0.08;nan
79400;BME280;68856;45.586;10.264;2024-01-16T07:20:32;98679.50;;;0.18;nan
79400;BME280;68856;45.586;10.264;2024-01-16T07:22:59;98685.91;;;0.43;nan
79400;BME280;68856;45.586;10.264;2024-01-16T07:25:25;98686.06;;;0.16;nan
79400;BME280;68856;45.586;10.264;2024-01-16T07:27:51;98692.47;;;0.34;nan
79400;BME280;68856;45.586;10.264;2024-01-16T07:30:18;98700.91;;;0.57;nan
79400;BME280;68856;45.586;10.264;2024-01-16T07:32:44;98705.19;;;0.52;nan
79400;BME280;68856;45.586;10.264;2024-01-16T07:35:10;98711.78;;;0.62;nan
79400;BME280;68856;45.586;10.264;2024-01-16T07:37:36;98714.03;;;0.52;nan
79400;BME280;68856;45.586;10.264;2024-01-16T07:40:03;98724.94;;;0.97;nan
79400;BME280;68856;45.586;10.264;2024-01-16T07:42:32;98724.94;;;0.71;nan
79400;BME280;68856;45.586;10.264;2024-01-16T07:45:01;98728.84;;;1.01;nan
79400;BME280;68856;45.586;10.264;2024-01-16T07:47:31;98737.69;;;1.08;nan
79400;BME280;68856;45.586;10.264;2024-01-16T07:49:57;98740.56;;;1.00;nan
79400;BME280;68856;45.586;10.264;2024-01-16T07:52:24;98750.22;;;1.01;nan
79400;BME280;68856;45.586;10.264;2024-01-16T07:54:50;98735.59;;;1.16;nan
79400;BME280;68856;45.586;10.264;2024-01-16T07:57:16;98731.25;;;1.42;nan
79400;BME280;68856;45.586;10.264;2024-01-16T07:59:42;98741.16;;;1.21;nan
79400;BME280;68856;45.586;10.264;2024-01-16T08:02:09;98736.41;;;1.37;nan
79400;BME280;68856;45.586;10.264;2024-01-16T08:04:35;98749.97;;;1.99;nan
79400;BME280;68856;45.586;10.264;2024-01-16T08:07:01;98746.81;;;2.15;nan
79400;BME280;68856;45.586;10.264;2024-01-16T08:09:28;98743.28;;;1.77;nan
79400;BME280;68856;45.586;10.264;2024-01-16T08:11:54;98745.25;;;1.95;nan
79400;BME280;68856;45.586;10.264;2024-01-16T08:14:20;98740.41;;;1.72;nan
79400;BME280;68856;45.586;10.264;2024-01-16T08:16:46;98748.75;;;1.95;nan
79400;BME280;68856;45.586;10.264;2024-01-16T08:19:13;98751.53;;;1.69;nan
79400;BME280;68856;45.586;10.264;2024-01-16T08:21:40;98761.97;;;1.90;nan
79400;BME280;68856;45.586;10.264;2024-01-16T08:24:07;98763.91;;;1.70;nan
79400;BME280;68856;45.586;10.264;2024-01-16T08:26:33;98769.53;;;2.06;nan
79400;BME280;68856;45.586;10.264;2024-01-16T08:28:59;98775.19;;;2.23;nan
79400;BME280;68856;45.586;10.264;2024-01-16T08:31:25;98781.50;;;1.97;nan
79400;BME280;68856;45.586;10.264;2024-01-16T08:33:52;98778.44;;;2.69;nan
79400;BME280;68856;45.586;10.264;2024-01-16T08:36:21;98797.69;;;2.60;nan
79400;BME280;68856;45.586;10.264;2024-01-16T08:38:48;98798.59;;;2.40;nan
79400;BME280;68856;45.586;10.264;2024-01-16T08:41:14;98804.72;;;2.85;nan
79400;BME280;68856;45.586;10.264;2024-01-16T08:43:40;98800.84;;;2.43;nan
79400;BME280;68856;45.586;10.264;2024-01-16T08:46:06;98814.72;;;2.72;nan
79400;BME280;68856;45.586;10.264;2024-01-16T08:48:33;98796.25;;;2.57;nan
79400;BME280;68856;45.586;10.264;2024-01-16T08:50:59;98810.50;;;3.13;nan
79400;BME280;68856;45.586;10.264;2024-01-16T08:53:25;98816.38;;;3.47;nan
79400;BME280;68856;45.586;10.264;2024-01-16T08:55:51;98811.25;;;3.21;nan
79400;BME280;68856;45.586;10.264;2024-01-16T08:58:18;98837.00;;;3.03;nan
79400;BME280;68856;45.586;10.264;2024-01-16T09:00:44;98832.13;;;2.87;nan
79400;BME280;68856;45.586;10.264;2024-01-16T09:03:12;98828.84;;;3.17;nan
79400;BME280;68856;45.586;10.264;2024-01-16T09:05:39;98822.22;;;3.19;nan
79400;BME280;68856;45.586;10.264;2024-01-16T09:08:05;98824.47;;;3.65;nan
79400;BME280;68856;45.586;10.264;2024-01-16T09:10:32;98815.75;;;3.88;nan
79400;BME280;68856;45.586;10.264;2024-01-16T09:12:58;98830.59;;;4.45;nan
79400;BME280;68856;45.586;10.264;2024-01-16T09:15:25;98832.41;;;4.32;nan
79400;BME280;68856;45.586;10.264;2024-01-16T09:17:51;98826.59;;;3.81;nan
79400;BME280;68856;45.586;10.264;2024-01-16T09:20:17;98827.03;;;4.32;nan
79400;BME280;68856;45.586;10.264;2024-01-16T09:22:44;98829.44;;;4.04;nan
79400;BME280;68856;45.586;10.264;2024-01-16T09:25:10;98828.75;;;4.09;nan
79400;BME280;68856;45.586;10.264;2024-01-16T09:27:36;98835.00;;;4.21;nan
79400;BME280;68856;45.586;10.264;2024-01-16T09:30:03;98834.06;;;4.63;nan
79400;BME280;68856;45.586;10.264;2024-01-16T09:32:30;98839.59;;;4.98;nan
79400;BME280;68856;45.586;10.264;2024-01-16T09:34:56;98844.34;;;5.26;nan
79400;BME280;68856;45.586;10.264;2024-01-16T09:37:24;98846.72;;;5.57;nan
79400;BME280;68856;45.586;10.264;2024-01-16T09:39:50;98838.97;;;5.60;nan
79400;BME280;68856;45.586;10.264;2024-01-16T09:42:17;98845.78;;;5.75;nan
79400;BME280;68856;45.586;10.264;2024-01-16T09:44:46;98844.13;;;6.20;nan
79400;BME280;68856;45.586;10.264;2024-01-16T09:47:14;98836.44;;;6.00;nan
79400;BME280;68856;45.586;10.264;2024-01-16T09:49:42;98843.44;;;6.01;nan
79400;BME280;68856;45.586;10.264;2024-01-16T09:52:08;98826.34;;;5.96;nan
79400;BME280;68856;45.586;10.264;2024-01-16T09:54:35;98835.50;;;6.46;nan
79400;BME280;68856;45.586;10.264;2024-01-16T09:57:04;98824.28;;;6.94;nan
79400;BME280;68856;45.586;10.264;2024-01-16T09:59:33;98824.63;;;6.69;nan
79400;BME280;68856;45.586;10.264;2024-01-16T10:02:02;98834.41;;;6.59;nan
79400;BME280;68856;45.586;10.264;2024-01-16T10:04:33;98841.38;;;6.43;nan
79400;BME280;68856;45.586;10.264;2024-01-16T10:07:02;98836.38;;;6.63;nan
79400;BME280;68856;45.586;10.264;2024-01-16T10:09:30;98838.16;;;6.18;nan
79400;BME280;68856;45.586;10.264;2024-01-16T10:11:56;98833.34;;;6.60;nan
79400;BME280;68856;45.586;10.264;2024-01-16T10:14:23;98826.88;;;7.17;nan
79400;BME280;68856;45.586;10.264;2024-01-16T10:17:00;98817.84;;;7.28;nan
79400;BME280;68856;45.586;10.264;2024-01-16T10:19:53;98804.28;;;7.40;nan
79400;BME280;68856;45.586;10.264;2024-01-16T10:22:22;98809.66;;;7.73;nan
79400;BME280;68856;45.586;10.264;2024-01-16T10:25:03;98805.56;;;7.71;nan
79400;BME280;68856;45.586;10.264;2024-01-16T10:27:30;98815.13;;;8.16;nan
79400;BME280;68856;45.586;10.264;2024-01-16T10:29:57;98803.97;;;9.05;nan
79400;BME280;68856;45.586;10.264;2024-01-16T10:32:34;98803.22;;;8.83;nan
79400;BME280;68856;45.586;10.264;2024-01-16T10:35:12;98817.56;;;8.56;nan
79400;BME280;68856;45.586;10.264;2024-01-16T10:37:48;98809.50;;;8.40;nan
79400;BME280;68856;45.586;10.264;2024-01-16T10:40:18;98818.22;;;8.68;nan
79400;BME280;68856;45.586;10.264;2024-01-16T10:42:46;98820.59;;;8.87;nan
79400;BME280;68856;45.586;10.264;2024-01-16T10:45:19;98809.75;;;9.13;nan
79400;BME280;68856;45.586;10.264;2024-01-16T10:47:49;98819.72;;;9.08;nan
79400;BME280;68856;45.586;10.264;2024-01-16T10:50:26;98821.31;;;9.04;nan
79400;BME280;68856;45.586;10.264;2024-01-16T10:52:54;98826.66;;;9.25;nan
79400;BME280;68856;45.586;10.264;2024-01-16T10:55:23;98823.09;;;9.20;nan
79400;BME280;68856;45.586;10.264;2024-01-16T10:57:50;98828.16;;;9.43;nan
79400;BME280;68856;45.586;10.264;2024-01-16T11:00:21;98823.53;;;9.70;nan
79400;BME280;68856;45.586;10.264;2024-01-16T11:05:28;98824.69;;;9.16;nan
79400;BME280;68856;45.586;10.264;2024-01-16T11:07:59;98833.56;;;8.85;nan
79400;BME280;68856;45.586;10.264;2024-01-16T11:10:28;98834.47;;;9.22;nan
79400;BME280;68856;45.586;10.264;2024-01-16T11:12:56;98837.09;;;9.38;nan
79400;BME280;68856;45.586;10.264;2024-01-16T11:15:25;98833.66;;;9.85;nan
79400;BME280;68856;45.586;10.264;2024-01-16T11:17:53;98834.41;;;10.17;nan
79400;BME280;68856;45.586;10.264;2024-01-16T11:20:21;98831.53;;;11.51;nan
79400;BME280;68856;45.586;10.264;2024-01-16T11:22:48;98839.22;;;13.95;nan
79400;BME280;68856;45.586;10.264;2024-01-16T11:25:16;98833.44;;;15.71;nan
79400;BME280;68856;45.586;10.264;2024-01-16T11:27:45;98834.41;;;16.53;nan
79400;BME280;68856;45.586;10.264;2024-01-16T11:30:30;98833.13;;;16.18;nan
79400;BME280;68856;45.586;10.264;2024-01-16T11:32:59;98829.78;;;17.17;nan
79400;BME280;68856;45.586;10.264;2024-01-16T11:35:37;98831.84;;;17.91;nan
79400;BME280;68856;45.586;10.264;2024-01-16T11:38:08;98834.72;;;16.79;nan
79400;BME280;68856;45.586;10.264;2024-01-16T11:40:35;98820.78;;;18.05;nan
79400;BME280;68856;45.586;10.264;2024-01-16T11:43:34;98818.38;;;18.82;nan
79400;BME280;68856;45.586;10.264;2024-01-16T11:46:05;98815.19;;;17.88;nan
79400;BME280;68856;45.586;10.264;2024-01-16T11:48:33;98816.41;;;18.74;nan
79400;BME280;68856;45.586;10.264;2024-01-16T11:51:00;98810.00;;;18.48;nan
79400;BME280;68856;45.586;10.264;2024-01-16T11:53:37;98802.19;;;16.45;nan
79400;BME280;68856;45.586;10.264;2024-01-16T11:59:16;98799.88;;;19.39;nan
79400;BME280;68856;45.586;10.264;2024-01-16T12:01:46;98796.28;;;20.74;nan
79400;BME280;68856;45.586;10.264;2024-01-16T12:04:16;98812.94;;;20.02;nan
79400;BME280;68856;45.586;10.264;2024-01-16T12:06:44;98799.91;;;20.66;nan
79400;BME280;68856;45.586;10.264;2024-01-16T12:09:24;98795.09;;;21.13;nan
79400;BME280;68856;45.586;10.264;2024-01-16T12:11:59;98800.97;;;18.56;nan
79400;BME280;68856;45.586;10.264;2024-01-16T12:14:27;98799.59;;;18.76;nan
79400;BME280;68856;45.586;10.264;2024-01-16T12:17:12;98793.94;;;18.89;nan
79400;BME280;68856;45.586;10.264;2024-01-16T12:19:39;98785.94;;;20.33;nan
79400;BME280;68856;45.586;10.264;2024-01-16T12:22:13;98773.44;;;20.36;nan
79400;BME280;68856;45.586;10.264;2024-01-16T12:24:40;98775.94;;;21.70;nan
79400;BME280;68856;45.586;10.264;2024-01-16T12:27:06;98774.09;;;22.76;nan
79400;BME280;68856;45.586;10.264;2024-01-16T12:29:34;98769.13;;;23.45;nan
79400;BME280;68856;45.586;10.264;2024-01-16T12:32:08;98759.22;;;24.31;nan
79400;BME280;68856;45.586;10.264;2024-01-16T12:34:43;98760.97;;;24.39;nan
79400;BME280;68856;45.586;10.264;2024-01-16T12:37:11;98766.59;;;25.05;nan
79400;BME280;68856;45.586;10.264;2024-01-16T12:39:38;98760.63;;;24.41;nan
79400;BME280;68856;45.586;10.264;2024-01-16T12:42:08;98759.88;;;23.29;nan
79400;BME280;68856;45.586;10.264;2024-01-16T12:44:36;98760.88;;;23.49;nan
79400;BME280;68856;45.586;10.264;2024-01-16T12:47:02;98751.16;;;23.55;nan
79400;BME280;68856;45.586;10.264;2024-01-16T12:49:29;98746.66;;;23.11;nan
79400;BME280;68856;45.586;10.264;2024-01-16T12:52:14;98748.59;;;23.22;nan
79400;BME280;68856;45.586;10.264;2024-01-16T12:54:40;98731.66;;;24.73;nan
79400;BME280;68856;45.586;10.264;2024-01-16T12:57:07;98730.16;;;23.70;nan
79400;BME280;68856;45.586;10.264;2024-01-16T12:59:36;98724.50;;;26.25;nan
79400;BME280;68856;45.586;10.264;2024-01-16T13:02:02;98721.19;;;25.36;nan
79400;BME280;68856;45.586;10.264;2024-01-16T13:04:29;98717.13;;;27.11;nan
79400;BME280;68856;45.586;10.264;2024-01-16T13:07:04;98710.13;;;26.69;nan
79400;BME280;68856;45.586;10.264;2024-01-16T13:09:31;98699.44;;;25.42;nan
79400;BME280;68856;45.586;10.264;2024-01-16T13:11:57;98695.38;;;24.66;nan
79400;BME280;68856;45.586;10.264;2024-01-16T13:14:26;98697.41;;;24.34;nan
79400;BME280;68856;45.586;10.264;2024-01-16T13:16:53;98711.19;;;22.40;nan
79400;BME280;68856;45.586;10.264;2024-01-16T13:19:22;98711.09;;;22.24;nan
79400;BME280;68856;45.586;10.264;2024-01-16T13:21:49;98716.59;;;20.43;nan
79400;BME280;68856;45.586;10.264;2024-01-16T13:24:16;98719.59;;;21.74;nan
79400;BME280;68856;45.586;10.264;2024-01-16T13:26:44;98716.13;;;22.47;nan